createdAt,value
2018-07-24T00:00:57.537Z,95638.6
2018-07-24T00:01:59.720Z,95643.3
2018-07-24T00:03:01.596Z,95640.1
2018-07-24T00:04:04.037Z,95636.8
2018-07-24T00:05:06.484Z,95637.3
2018-07-24T00:06:08.657Z,95637.5
2018-07-24T00:07:11.110Z,95634.3
2018-07-24T00:08:13.255Z,95633.4
2018-07-24T00:09:15.698Z,95630.3
2018-07-24T00:10:17.888Z,95630.8
2018-07-24T00:11:20.061Z,95630.9
2018-07-24T00:12:22.506Z,95631
2018-07-24T00:13:24.674Z,95629
2018-07-24T00:14:27.122Z,95625.5
2018-07-24T00:15:29.553Z,95629
2018-07-24T00:16:31.720Z,95627.1
2018-07-24T00:17:34.165Z,95626.6
2018-07-24T00:18:36.607Z,95629.7
2018-07-24T00:19:39.044Z,95631.8
2018-07-24T00:20:41.221Z,95630
2018-07-24T00:21:43.657Z,95631.7
2018-07-24T00:22:45.556Z,95631.3
2018-07-24T00:23:48.004Z,95629.2
2018-07-24T00:24:50.164Z,95632.3
2018-07-24T00:25:51.780Z,95628.4
2018-07-24T00:26:54.223Z,95628.7
2018-07-24T00:27:56.397Z,95630.4
2018-07-24T00:28:58.871Z,95628.9
2018-07-24T00:30:01.037Z,95629.5
2018-07-24T00:31:03.207Z,95629.7
2018-07-24T00:32:05.813Z,95626.2
2018-07-24T00:33:08.090Z,95624.1
2018-07-24T00:34:10.257Z,95623
2018-07-24T00:35:12.155Z,95624.2
2018-07-24T00:36:14.056Z,95623.3
2018-07-24T00:37:16.275Z,95622.1
2018-07-24T00:38:18.721Z,95616
2018-07-24T00:39:21.159Z,95624.8
2018-07-24T00:40:23.336Z,95622
2018-07-24T00:41:25.769Z,95619.5
2018-07-24T00:42:28.197Z,95622.6
2018-07-24T00:43:30.635Z,95620.5
2018-07-24T00:44:32.259Z,95624.9
2018-07-24T00:45:34.439Z,95623.5
2018-07-24T00:46:36.874Z,95624.8
2018-07-24T00:47:39.315Z,95625.4
2018-07-24T00:48:41.590Z,95623.6
2018-07-24T00:49:44.027Z,95623.4
2018-07-24T00:50:46.207Z,95624.9
2018-07-24T00:51:48.647Z,95625.7
2018-07-24T00:52:51.091Z,95623.7
2018-07-24T00:53:52.989Z,95621.5
2018-07-24T00:54:55.427Z,95617.9
2018-07-24T00:55:57.870Z,95617.2
2018-07-24T00:57:00.020Z,95618.2
2018-07-24T00:58:02.453Z,95616.9
2018-07-24T00:59:04.634Z,95615.3
2018-07-24T01:00:06.510Z,95614.9
2018-07-24T01:01:08.690Z,95614.4
2018-07-24T01:02:10.862Z,95614.6
2018-07-24T01:03:12.478Z,95610.5
2018-07-24T01:04:14.934Z,95614.3
2018-07-24T01:05:17.069Z,95610
2018-07-24T01:06:19.503Z,95608.8
2018-07-24T01:07:21.393Z,95606.8
2018-07-24T01:08:23.826Z,95609.4
2018-07-24T01:09:26.030Z,95608.1
2018-07-24T01:10:28.479Z,95609.8
2018-07-24T01:11:30.639Z,95609
2018-07-24T01:12:33.084Z,95604.1
2018-07-24T01:13:35.525Z,95604.8
2018-07-24T01:14:37.700Z,95601.3
2018-07-24T01:15:40.138Z,95603.9
2018-07-24T01:16:42.581Z,95600.9
2018-07-24T01:17:44.765Z,95599.6
2018-07-24T01:18:47.213Z,95603.4
2018-07-24T01:19:49.660Z,95603.9
2018-07-24T01:20:51.833Z,95603
2018-07-24T01:21:53.717Z,95603.8
2018-07-24T01:22:55.883Z,95604.9
2018-07-24T01:23:57.775Z,95601.4
2018-07-24T01:24:59.695Z,95606.2
2018-07-24T01:26:01.878Z,95604
2018-07-24T01:27:03.782Z,95603.2
2018-07-24T01:28:05.404Z,95603.5
2018-07-24T01:29:07.850Z,95600.2
2018-07-24T01:30:10.291Z,95602.2
2018-07-24T01:31:12.737Z,95599.9
2018-07-24T01:32:14.916Z,95598.8
2018-07-24T01:33:17.097Z,95601.8
2018-07-24T01:34:19.545Z,95599.2
2018-07-24T01:35:21.722Z,95597.5
2018-07-24T01:36:24.175Z,95598.4
2018-07-24T01:37:26.348Z,95591.3
2018-07-24T01:38:28.795Z,95595.5
2018-07-24T01:39:30.716Z,95595.3
2018-07-24T01:40:32.901Z,95595.3
2018-07-24T01:41:35.365Z,95599.1
2018-07-24T01:42:37.808Z,95600
2018-07-24T01:43:39.727Z,95600.2
2018-07-24T01:44:41.907Z,95601.4
2018-07-24T01:45:44.353Z,95604.8
2018-07-24T01:46:46.531Z,95604.4
2018-07-24T01:47:48.696Z,95603.5
2018-07-24T01:48:50.883Z,95607.6
2018-07-24T01:49:53.074Z,95601.8
2018-07-24T01:50:55.219Z,95604.4
2018-07-24T01:51:57.359Z,95604.2
2018-07-24T01:52:59.522Z,95597.2
2018-07-24T01:54:01.967Z,95599.7
2018-07-24T01:55:04.405Z,95598.6
2018-07-24T01:56:06.314Z,95598.9
2018-07-24T01:57:08.478Z,95602.4
2018-07-24T01:58:10.653Z,95601.3
2018-07-24T01:59:13.099Z,95603.3
2018-07-24T02:00:15.256Z,95599.2
2018-07-24T02:01:16.885Z,95603.7
2018-07-24T02:02:19.331Z,95603.3
2018-07-24T02:03:21.790Z,95603.2
2018-07-24T02:04:24.227Z,95604.3
2018-07-24T02:05:26.684Z,95604.6
2018-07-24T02:06:28.860Z,95604.3
2018-07-24T02:07:31.308Z,95604.4
2018-07-24T02:08:33.784Z,95602.9
2018-07-24T02:09:36.228Z,95603
2018-07-24T02:10:38.689Z,95600.8
2018-07-24T02:11:40.620Z,95599.7
2018-07-24T02:12:43.051Z,95599.1
2018-07-24T02:13:45.506Z,95600.4
2018-07-24T02:14:47.393Z,95600.4
2018-07-24T02:15:49.276Z,95601.9
2018-07-24T02:16:51.719Z,95597.7
2018-07-24T02:17:54.180Z,95599.6
2018-07-24T02:18:56.621Z,95600.9
2018-07-24T02:19:58.800Z,95597.1
2018-07-24T02:21:01.244Z,95600.9
2018-07-24T02:22:03.695Z,95598.6
2018-07-24T02:23:06.147Z,95599.1
2018-07-24T02:24:08.594Z,95601.4
2018-07-24T02:25:11.038Z,95603
2018-07-24T02:26:13.481Z,95601.4
2018-07-24T02:27:15.352Z,95597.8
2018-07-24T02:28:17.496Z,95598.4
2018-07-24T02:29:19.648Z,95594.7
2018-07-24T02:30:22.097Z,95594.7
2018-07-24T02:31:24.603Z,95594.7
2018-07-24T02:32:27.037Z,95593.7
2018-07-24T02:33:29.256Z,95593.5
2018-07-24T02:34:31.762Z,95590.7
2018-07-24T02:35:33.905Z,95590.7
2018-07-24T02:36:35.797Z,95587.9
2018-07-24T02:37:37.977Z,95589.2
2018-07-24T02:38:40.151Z,95590.9
2018-07-24T02:39:42.092Z,95590.9
2018-07-24T02:40:44.549Z,95592.5
2018-07-24T02:41:46.712Z,95590.7
2018-07-24T02:42:48.594Z,95587.2
2018-07-24T02:43:51.038Z,95592.5
2018-07-24T02:44:52.941Z,95586.7
2018-07-24T02:45:55.114Z,95587.8
2018-07-24T02:46:57.328Z,95590.3
2018-07-24T02:47:59.510Z,95588.9
2018-07-24T02:49:01.963Z,95585.4
2018-07-24T02:50:04.420Z,95590.3
2018-07-24T02:51:06.344Z,95587.4
2018-07-24T02:52:08.524Z,95586.1
2018-07-24T02:53:10.710Z,95585.6
2018-07-24T02:54:12.871Z,95584.9
2018-07-24T02:55:15.065Z,95587.4
2018-07-24T02:56:17.508Z,95582.6
2018-07-24T02:57:19.421Z,95587.1
2018-07-24T02:58:21.583Z,95582.3
2018-07-24T02:59:24.040Z,95579.1
2018-07-24T03:00:26.484Z,95582.5
2018-07-24T03:01:28.118Z,95580.2
2018-07-24T03:02:30.561Z,95582.4
2018-07-24T03:03:32.732Z,95578.1
2018-07-24T03:04:34.641Z,95576.1
2018-07-24T03:05:37.077Z,95581.6
2018-07-24T03:06:39.014Z,95577.4
2018-07-24T03:07:41.193Z,95577.4
2018-07-24T03:08:43.374Z,95577.9
2018-07-24T03:09:45.558Z,95575.4
2018-07-24T03:10:48.003Z,95581
2018-07-24T03:11:49.899Z,95577.7
2018-07-24T03:12:52.343Z,95579.3
2018-07-24T03:13:54.791Z,95574.3
2018-07-24T03:14:57.226Z,95574.6
2018-07-24T03:15:59.421Z,95574.5
2018-07-24T03:17:01.858Z,95570.4
2018-07-24T03:18:03.499Z,95573
2018-07-24T03:19:05.697Z,95568.2
2018-07-24T03:20:07.869Z,95567.2
2018-07-24T03:21:10.327Z,95562.9
2018-07-24T03:22:12.508Z,95564.3
2018-07-24T03:23:14.946Z,95560.2
2018-07-24T03:24:17.143Z,95563.4
2018-07-24T03:25:19.326Z,95563.8
2018-07-24T03:26:21.498Z,95563.1
2018-07-24T03:27:23.668Z,95563.3
2018-07-24T03:28:26.112Z,95562.5
2018-07-24T03:29:28.266Z,95563.5
2018-07-24T03:30:30.462Z,95565.5
2018-07-24T03:31:32.621Z,95563.9
2018-07-24T03:32:35.065Z,95560
2018-07-24T03:33:37.554Z,95564.9
2018-07-24T03:34:40.007Z,95558
2018-07-24T03:35:42.456Z,95556.4
2018-07-24T03:36:44.897Z,95560.3
2018-07-24T03:37:47.370Z,95556.5
2018-07-24T03:38:49.527Z,95555.7
2018-07-24T03:39:51.711Z,95558.3
2018-07-24T03:40:53.874Z,95556.8
2018-07-24T03:41:56.052Z,95559.6
2018-07-24T03:42:57.671Z,95558.4
2018-07-24T03:44:00.120Z,95556.9
2018-07-24T03:45:02.428Z,95558.7
2018-07-24T03:46:04.967Z,95559.6
2018-07-24T03:47:07.425Z,95560
2018-07-24T03:48:09.593Z,95561.2
2018-07-24T03:49:11.767Z,95558.7
2018-07-24T03:50:13.947Z,95560.1
2018-07-24T03:51:16.122Z,95556.5
2018-07-24T03:52:18.558Z,95558
2018-07-24T03:53:20.157Z,95561.5
2018-07-24T03:54:22.078Z,95559.2
2018-07-24T03:55:24.537Z,95559.4
2018-07-24T03:56:26.991Z,95555.8
2018-07-24T03:57:29.176Z,95556.8
2018-07-24T03:58:31.641Z,95554
2018-07-24T03:59:33.520Z,95558.2
2018-07-24T04:00:35.977Z,95560.5
2018-07-24T04:01:37.857Z,95560.4
2018-07-24T04:02:40.066Z,95558.4
2018-07-24T04:03:42.243Z,95558.6
2018-07-24T04:04:43.847Z,95559
2018-07-24T04:05:45.751Z,95556.5
2018-07-24T04:06:47.935Z,95557.3
2018-07-24T04:07:50.077Z,95559.8
2018-07-24T04:08:52.248Z,95563.5
2018-07-24T04:09:54.439Z,95555.2
2018-07-24T04:10:56.893Z,95560.2
2018-07-24T04:11:59.075Z,95556.2
2018-07-24T04:13:01.516Z,95559.8
2018-07-24T04:14:03.703Z,95557.1
2018-07-24T04:15:06.144Z,95560.4
2018-07-24T04:16:07.752Z,95561.2
2018-07-24T04:17:09.928Z,95563.2
2018-07-24T04:18:12.107Z,95556.5
2018-07-24T04:19:14.278Z,95558.1
2018-07-24T04:20:16.455Z,95562.3
2018-07-24T04:21:18.906Z,95561
2018-07-24T04:22:20.821Z,95561.6
2018-07-24T04:23:23.001Z,95566.5
2018-07-24T04:24:25.433Z,95568.4
2018-07-24T04:25:27.340Z,95564.7
2018-07-24T04:26:29.793Z,95563.9
2018-07-24T04:27:32.243Z,95564.4
2018-07-24T04:28:34.704Z,95565.3
2018-07-24T04:29:36.890Z,95561.5
2018-07-24T04:30:38.548Z,95565.9
2018-07-24T04:31:40.761Z,95561.2
2018-07-24T04:32:42.986Z,95560.9
2018-07-24T04:33:44.997Z,95565.2
2018-07-24T04:34:47.183Z,95555.2
2018-07-24T04:35:49.347Z,95558
2018-07-24T04:36:51.789Z,95561.4
2018-07-24T04:37:54.255Z,95560
2018-07-24T04:38:56.694Z,95558
2018-07-24T04:39:59.038Z,95559.2
2018-07-24T04:41:01.269Z,95554.9
2018-07-24T04:42:03.437Z,95556.3
2018-07-24T04:43:05.335Z,95554.1
2018-07-24T04:44:07.783Z,95552.5
2018-07-24T04:45:09.935Z,95552
2018-07-24T04:46:12.084Z,95551.3
2018-07-24T04:47:14.540Z,95556.1
2018-07-24T04:48:16.978Z,95552
2018-07-24T04:49:19.433Z,95551.7
2018-07-24T04:50:21.575Z,95549.8
2018-07-24T04:51:24.039Z,95549.9
2018-07-24T04:52:25.915Z,95552.6
2018-07-24T04:53:28.363Z,95553.2
2018-07-24T04:54:30.548Z,95553.5
2018-07-24T04:55:32.449Z,95554.2
2018-07-24T04:56:34.352Z,95553.2
2018-07-24T04:57:36.817Z,95552.7
2018-07-24T04:58:39.268Z,95551.8
2018-07-24T04:59:41.728Z,95553.4
2018-07-24T05:00:43.908Z,95554.2
2018-07-24T05:01:46.069Z,95555.8
2018-07-24T05:02:48.246Z,95554.4
2018-07-24T05:03:50.414Z,95551.4
2018-07-24T05:04:52.859Z,95549.9
2018-07-24T05:05:55.047Z,95551.3
2018-07-24T05:06:56.687Z,95552.1
2018-07-24T05:07:58.868Z,95554.3
2018-07-24T05:09:01.319Z,95551.1
2018-07-24T05:10:03.777Z,95552.5
2018-07-24T05:11:05.959Z,95555.8
2018-07-24T05:12:07.632Z,95555.3
2018-07-24T05:13:09.811Z,95554.3
2018-07-24T05:14:11.991Z,95556.9
2018-07-24T05:15:13.899Z,95558
2018-07-24T05:16:16.077Z,95557.5
2018-07-24T05:17:17.954Z,95555.2
2018-07-24T05:18:19.838Z,95556.5
2018-07-24T05:19:22.019Z,95550.3
2018-07-24T05:20:23.933Z,95552.1
2018-07-24T05:21:26.390Z,95555
2018-07-24T05:22:28.053Z,95558.5
2018-07-24T05:23:30.422Z,95558
2018-07-24T05:24:32.358Z,95558.3
2018-07-24T05:25:34.849Z,95558.1
2018-07-24T05:26:37.029Z,95560.3
2018-07-24T05:27:39.476Z,95561.5
2018-07-24T05:28:41.366Z,95557.4
2018-07-24T05:29:43.807Z,95566.1
2018-07-24T05:30:46.000Z,95555.9
2018-07-24T05:31:48.454Z,95558.8
2018-07-24T05:32:50.640Z,95557.4
2018-07-24T05:33:52.840Z,95561.7
2018-07-24T05:34:54.712Z,95566.3
2018-07-24T05:35:57.189Z,95563.3
2018-07-24T05:36:59.385Z,95568
2018-07-24T05:38:01.832Z,95571.7
2018-07-24T05:39:04.271Z,95566.1
2018-07-24T05:40:06.440Z,95565.4
2018-07-24T05:41:08.321Z,95568.5
2018-07-24T05:42:10.498Z,95572.6
2018-07-24T05:43:12.675Z,95569.1
2018-07-24T05:44:15.127Z,95568.4
2018-07-24T05:45:17.302Z,95565.3
2018-07-24T05:46:19.210Z,95567.8
2018-07-24T05:47:21.648Z,95570.9
2018-07-24T05:48:24.095Z,95567.4
2018-07-24T05:49:26.545Z,95574.2
2018-07-24T05:50:28.996Z,95571.5
2018-07-24T05:51:31.179Z,95578.8
2018-07-24T05:52:33.093Z,95576.1
2018-07-24T05:53:35.268Z,95576
2018-07-24T05:54:37.422Z,95581.5
2018-07-24T05:55:39.612Z,95585.2
2018-07-24T05:56:42.062Z,95577.8
2018-07-24T05:57:44.258Z,95580.9
2018-07-24T05:58:46.431Z,95578.2
2018-07-24T05:59:48.872Z,95580.8
2018-07-24T06:00:51.318Z,95580
2018-07-24T06:01:53.699Z,95582
2018-07-24T06:02:56.180Z,95585.6
2018-07-24T06:03:58.624Z,95582.4
2018-07-24T06:05:00.802Z,95578.1
2018-07-24T06:06:02.990Z,95581.1
2018-07-24T06:07:04.895Z,95579.7
2018-07-24T06:08:07.093Z,95579.4
2018-07-24T06:09:09.255Z,95577.2
2018-07-24T06:10:11.708Z,95579.1
2018-07-24T06:11:13.878Z,95579.1
2018-07-24T06:12:16.057Z,95580.3
2018-07-24T06:13:18.781Z,95578.7
2018-07-24T06:14:21.308Z,95573.4
2018-07-24T06:15:23.561Z,95577.1
2018-07-24T06:16:25.743Z,95571.2
2018-07-24T06:17:28.010Z,95572.2
2018-07-24T06:18:30.063Z,95572.3
2018-07-24T06:19:32.516Z,95568.3
2018-07-24T06:20:34.973Z,95573
2018-07-24T06:21:37.419Z,95574
2018-07-24T06:22:39.587Z,95567.5
2018-07-24T06:23:42.190Z,95565.5
2018-07-24T06:24:44.466Z,95569.3
2018-07-24T06:25:46.904Z,95570.6
2018-07-24T06:26:49.352Z,95570.6
2018-07-24T06:27:51.263Z,95566.5
2018-07-24T06:28:53.723Z,95572
2018-07-24T06:29:55.901Z,95567.2
2018-07-24T06:30:58.070Z,95570.2
2018-07-24T06:32:00.274Z,95568.9
2018-07-24T06:33:02.450Z,95564.3
2018-07-24T06:34:04.624Z,95567.1
2018-07-24T06:35:07.140Z,95561.1
2018-07-24T06:36:09.700Z,95563.6
2018-07-24T06:37:11.605Z,95565.1
2018-07-24T06:38:14.056Z,95562.4
2018-07-24T06:39:15.933Z,95561
2018-07-24T06:40:18.391Z,95558.8
2018-07-24T06:41:20.571Z,95560.5
2018-07-24T06:42:22.748Z,95569.5
2018-07-24T06:43:25.204Z,95571.8
2018-07-24T06:44:27.772Z,95568.4
2018-07-24T06:45:29.987Z,95565.9
2018-07-24T06:46:32.446Z,95563.6
2018-07-24T06:47:34.906Z,95563.4
2018-07-24T06:48:37.368Z,95559.1
2018-07-24T06:49:39.549Z,95560.3
2018-07-24T06:50:42.011Z,95560.5
2018-07-24T06:51:44.868Z,95560.7
2018-07-24T06:52:47.653Z,95561.2
2018-07-24T06:53:49.828Z,95561.6
2018-07-24T06:54:52.013Z,95567.6
2018-07-24T06:55:54.174Z,95562
2018-07-24T06:56:56.363Z,95563.2
2018-07-24T06:57:58.543Z,95563.5
2018-07-24T06:59:01.088Z,95561.7
2018-07-24T07:00:03.349Z,95562.3
2018-07-24T07:01:05.584Z,95558.4
2018-07-24T07:02:08.365Z,95561.5
2018-07-24T07:03:10.852Z,95561.4
2018-07-24T07:04:12.791Z,95557.3
2018-07-24T07:05:15.546Z,95561.1
2018-07-24T07:06:17.702Z,95566.7
2018-07-24T07:07:20.151Z,95566.5
2018-07-24T07:08:22.606Z,95565.4
2018-07-24T07:09:24.791Z,95563.6
2018-07-24T07:10:26.671Z,95565.9
2018-07-24T07:11:29.117Z,95563.7
2018-07-24T07:12:31.558Z,95560.2
2018-07-24T07:13:33.972Z,95562.4
2018-07-24T07:14:36.198Z,95563.5
2018-07-24T07:15:38.646Z,95559.6
2018-07-24T07:16:40.562Z,95561.9
2018-07-24T07:17:42.467Z,95557.2
2018-07-24T07:18:44.647Z,95558
2018-07-24T07:19:47.096Z,95558.6
2018-07-24T07:20:49.276Z,95558.6
2018-07-24T07:21:51.729Z,95555.1
2018-07-24T07:22:54.180Z,95556.5
2018-07-24T07:23:56.640Z,95556.2
2018-07-24T07:24:58.784Z,95553.6
2018-07-24T07:26:00.434Z,95553.7
2018-07-24T07:27:02.883Z,95553.4
2018-07-24T07:28:05.330Z,95551.5
2018-07-24T07:29:08.031Z,95548.3
2018-07-24T07:30:10.384Z,95550.8
2018-07-24T07:31:12.536Z,95550
2018-07-24T07:32:14.825Z,95548.4
2018-07-24T07:33:17.094Z,95548.7
2018-07-24T07:34:19.008Z,95546.8
2018-07-24T07:35:21.453Z,95544.8
2018-07-24T07:36:23.356Z,95547.5
2018-07-24T07:37:25.816Z,95547
2018-07-24T07:38:28.254Z,95543.9
2018-07-24T07:39:30.696Z,95542.9
2018-07-24T07:40:32.880Z,95544.4
2018-07-24T07:41:35.335Z,95545.2
2018-07-24T07:42:36.989Z,95542.4
2018-07-24T07:43:39.433Z,95546.1
2018-07-24T07:44:41.888Z,95544.4
2018-07-24T07:45:44.070Z,95544.9
2018-07-24T07:46:46.246Z,95548.1
2018-07-24T07:47:48.693Z,95543.2
2018-07-24T07:48:51.147Z,95543.2
2018-07-24T07:49:53.714Z,95541.4
2018-07-24T07:50:55.899Z,95548.5
2018-07-24T07:51:58.457Z,95548.9
2018-07-24T07:53:00.460Z,95547.7
2018-07-24T07:54:03.048Z,95547
2018-07-24T07:55:05.531Z,95547.2
2018-07-24T07:56:07.995Z,95545
2018-07-24T07:57:09.942Z,95545.9
2018-07-24T07:58:11.882Z,95544.2
2018-07-24T07:59:14.341Z,95546
2018-07-24T08:00:16.562Z,95544.1
2018-07-24T08:01:18.751Z,95540.7
2018-07-24T08:02:21.016Z,95540.4
2018-07-24T08:03:23.519Z,95542.8
2018-07-24T08:04:26.572Z,95544.2
2018-07-24T08:05:28.476Z,95545.1
2018-07-24T08:06:30.663Z,95544.2
2018-07-24T08:07:33.131Z,95540
2018-07-24T08:08:35.289Z,95536.8
2018-07-24T08:09:37.486Z,95535.5
2018-07-24T08:10:39.679Z,95539.6
2018-07-24T08:11:41.872Z,95538.6
2018-07-24T08:12:44.051Z,95536.6
2018-07-24T08:13:46.511Z,95535.6
2018-07-24T08:14:48.662Z,95536.6
2018-07-24T08:15:50.857Z,95533.9
2018-07-24T08:16:53.299Z,95537.5
2018-07-24T08:17:55.749Z,95537.1
2018-07-24T08:18:58.202Z,95532.2
2018-07-24T08:20:00.375Z,95537.4
2018-07-24T08:21:02.556Z,95536
2018-07-24T08:22:04.739Z,95537.3
2018-07-24T08:23:06.636Z,95531.9
2018-07-24T08:24:08.814Z,95531
2018-07-24T08:25:10.718Z,95531.7
2018-07-24T08:26:12.897Z,95529.4
2018-07-24T08:27:15.087Z,95529.5
2018-07-24T08:28:17.598Z,95530.7
2018-07-24T08:29:19.739Z,95533.5
2018-07-24T08:30:21.885Z,95529.5
2018-07-24T08:31:24.083Z,95531
2018-07-24T08:32:26.531Z,95531.2
2018-07-24T08:33:28.780Z,95529.1
2018-07-24T08:34:31.258Z,95527.5
2018-07-24T08:35:33.706Z,95527
2018-07-24T08:36:36.160Z,95529
2018-07-24T08:37:38.606Z,95522.1
2018-07-24T08:38:41.057Z,95523.7
2018-07-24T08:39:43.292Z,95525.5
2018-07-24T08:40:45.481Z,95524.6
2018-07-24T08:41:47.942Z,95521.7
2018-07-24T08:42:49.817Z,95524.4
2018-07-24T08:43:52.262Z,95523.1
2018-07-24T08:44:54.369Z,95526.5
2018-07-24T08:45:56.524Z,95529.4
2018-07-24T08:46:58.402Z,95527.9
2018-07-24T08:48:01.000Z,95526.4
2018-07-24T08:49:03.287Z,95530.3
2018-07-24T08:50:04.868Z,95528.1
2018-07-24T08:51:07.049Z,95528.5
2018-07-24T08:52:08.668Z,95528.6
2018-07-24T08:53:11.643Z,95527.1
2018-07-24T08:54:15.588Z,95528.8
2018-07-24T08:55:20.053Z,95523.9
2018-07-24T08:56:22.322Z,95520.5
2018-07-24T08:57:24.488Z,95525.5
2018-07-24T08:58:26.950Z,95521.2
2018-07-24T08:59:29.121Z,95520.9
2018-07-24T09:00:31.420Z,95517.2
2018-07-24T09:01:33.935Z,95517.1
2018-07-24T09:02:36.381Z,95513.9
2018-07-24T09:03:38.379Z,95517.4
2018-07-24T09:04:40.883Z,95518.8
2018-07-24T09:05:43.030Z,95516.1
2018-07-24T09:06:44.661Z,95514.7
2018-07-24T09:07:46.556Z,95514
2018-07-24T09:08:48.707Z,95511.7
2018-07-24T09:09:51.158Z,95515.3
2018-07-24T09:10:53.613Z,95511.3
2018-07-24T09:11:55.787Z,95512.1
2018-07-24T09:12:58.237Z,95510
2018-07-24T09:14:00.111Z,95509.5
2018-07-24T09:15:02.001Z,95509
2018-07-24T09:16:04.451Z,95508.2
2018-07-24T09:17:06.637Z,95512.6
2018-07-24T09:18:09.104Z,95510.1
2018-07-24T09:19:11.576Z,95504.9
2018-07-24T09:20:14.019Z,95503.9
2018-07-24T09:21:16.476Z,95503.8
2018-07-24T09:22:18.644Z,95507.7
2018-07-24T09:23:21.100Z,95511.1
2018-07-24T09:24:23.548Z,95507.6
2018-07-24T09:25:25.731Z,95502.4
2018-07-24T09:26:27.905Z,95503.5
2018-07-24T09:27:29.826Z,95505.9
2018-07-24T09:28:32.287Z,95505.1
2018-07-24T09:29:34.473Z,95500.6
2018-07-24T09:30:36.668Z,95508.4
2018-07-24T09:31:39.113Z,95506.7
2018-07-24T09:32:41.557Z,95502.8
2018-07-24T09:33:43.748Z,95503.1
2018-07-24T09:34:45.943Z,95500.9
2018-07-24T09:35:48.387Z,95502.7
2018-07-24T09:36:50.833Z,95503.5
2018-07-24T09:37:53.289Z,95508.2
2018-07-24T09:38:55.730Z,95504.2
2018-07-24T09:39:58.186Z,95508.8
2018-07-24T09:41:00.636Z,95502.7
2018-07-24T09:42:02.818Z,95505.4
2018-07-24T09:43:05.000Z,95503.2
2018-07-24T09:44:07.463Z,95499.9
2018-07-24T09:45:09.928Z,95503.2
2018-07-24T09:46:12.111Z,95502.1
2018-07-24T09:47:14.294Z,95498.3
2018-07-24T09:48:16.759Z,95497.6
2018-07-24T09:49:19.197Z,95495.8
2018-07-24T09:50:21.666Z,95496.3
2018-07-24T09:51:24.107Z,95502.9
2018-07-24T09:52:26.590Z,95499.3
2018-07-24T09:53:29.049Z,95490.5
2018-07-24T09:54:31.242Z,95493.3
2018-07-24T09:55:33.688Z,95491.5
2018-07-24T09:56:36.153Z,95494.8
2018-07-24T09:57:38.337Z,95496.1
2018-07-24T09:58:40.209Z,95485.4
2018-07-24T09:59:42.395Z,95493
2018-07-24T10:00:44.580Z,95489.7
2018-07-24T10:01:46.478Z,95486.3
2018-07-24T10:02:48.937Z,95487.4
2018-07-24T10:03:51.382Z,95488.1
2018-07-24T10:04:53.834Z,95491
2018-07-24T10:05:56.019Z,95491.1
2018-07-24T10:06:58.479Z,95486.8
2018-07-24T10:08:00.935Z,95497.3
2018-07-24T10:09:02.906Z,95489.1
2018-07-24T10:10:05.404Z,95493.9
2018-07-24T10:11:08.405Z,95483.3
2018-07-24T10:12:10.870Z,95483.5
2018-07-24T10:13:13.278Z,95487.5
2018-07-24T10:14:15.529Z,95484.1
2018-07-24T10:15:17.696Z,95485
2018-07-24T10:16:20.163Z,95484.4
2018-07-24T10:17:22.635Z,95483.6
2018-07-24T10:18:25.084Z,95483.3
2018-07-24T10:19:26.990Z,95483.9
2018-07-24T10:20:29.450Z,95482.2
2018-07-24T10:21:31.643Z,95483.4
2018-07-24T10:22:34.098Z,95480.8
2018-07-24T10:23:36.004Z,95476.5
2018-07-24T10:24:37.389Z,95479.8
2018-07-24T10:25:39.551Z,95467.4
2018-07-24T10:26:41.465Z,95470.5
2018-07-24T10:27:43.637Z,95474.2
2018-07-24T10:28:46.088Z,95470
2018-07-24T10:29:48.544Z,95467.5
2018-07-24T10:30:50.727Z,95467.2
2018-07-24T10:31:52.926Z,95465.8
2018-07-24T10:32:55.117Z,95468
2018-07-24T10:33:57.570Z,95463.7
2018-07-24T10:34:59.789Z,95463.5
2018-07-24T10:36:01.708Z,95469.8
2018-07-24T10:37:04.152Z,95465
2018-07-24T10:38:06.328Z,95462.8
2018-07-24T10:39:08.514Z,95462.2
2018-07-24T10:40:10.409Z,95465.9
2018-07-24T10:41:12.327Z,95463.8
2018-07-24T10:42:14.508Z,95454.1
2018-07-24T10:43:16.998Z,95460.4
2018-07-24T10:44:19.464Z,95457.9
2018-07-24T10:45:21.373Z,95454.3
2018-07-24T10:46:23.826Z,95457.3
2018-07-24T10:47:26.284Z,95451
2018-07-24T10:48:28.468Z,95452.5
2018-07-24T10:49:30.635Z,95448.9
2018-07-24T10:50:33.088Z,95448.9
2018-07-24T10:51:35.554Z,95448.3
2018-07-24T10:52:37.736Z,95448.7
2018-07-24T10:53:40.196Z,95447.6
2018-07-24T10:54:42.662Z,95444.9
2018-07-24T10:55:44.847Z,95451.9
2018-07-24T10:56:47.038Z,95452.6
2018-07-24T10:57:49.503Z,95449.6
2018-07-24T10:58:51.679Z,95449.5
2018-07-24T10:59:53.901Z,95448.9
2018-07-24T11:00:56.460Z,95451.5
2018-07-24T11:01:58.707Z,95450.4
2018-07-24T11:03:00.994Z,95449
2018-07-24T11:04:03.474Z,95446.7
2018-07-24T11:05:06.053Z,95444.2
2018-07-24T11:06:08.607Z,95439.9
2018-07-24T11:07:10.256Z,95439.8
2018-07-24T11:08:12.722Z,95438.8
2018-07-24T11:09:14.909Z,95436.5
2018-07-24T11:10:16.838Z,95436.3
2018-07-24T11:11:19.292Z,95440
2018-07-24T11:12:21.742Z,95439.4
2018-07-24T11:13:23.927Z,95438.1
2018-07-24T11:14:25.815Z,95438.1
2018-07-24T11:15:27.986Z,95435.3
2018-07-24T11:16:30.508Z,95437.1
2018-07-24T11:17:32.532Z,95435.8
2018-07-24T11:18:34.989Z,95433.2
2018-07-24T11:19:37.433Z,95428.1
2018-07-24T11:20:39.626Z,95432.6
2018-07-24T11:21:41.510Z,95432.3
2018-07-24T11:22:44.830Z,95427.6
2018-07-24T11:23:47.495Z,95427.7
2018-07-24T11:24:49.927Z,95428.4
2018-07-24T11:25:52.125Z,95423.4
2018-07-24T11:26:54.600Z,95422.4
2018-07-24T11:27:56.487Z,95426.5
2018-07-24T11:28:58.944Z,95426.3
2018-07-24T11:30:01.405Z,95427.4
2018-07-24T11:31:03.877Z,95422.8
2018-07-24T11:32:06.352Z,95419.8
2018-07-24T11:33:09.487Z,95419.4
2018-07-24T11:34:11.667Z,95421.4
2018-07-24T11:35:14.118Z,95423.7
2018-07-24T11:36:16.819Z,95420.9
2018-07-24T11:37:19.434Z,95418.6
2018-07-24T11:38:21.883Z,95417.2
2018-07-24T11:39:24.396Z,95416.3
2018-07-24T11:40:26.581Z,95416.2
2018-07-24T11:41:28.508Z,95415.6
2018-07-24T11:42:30.976Z,95415.5
2018-07-24T11:43:33.157Z,95416.5
2018-07-24T11:44:50.250Z,95415.3
2018-07-24T11:45:52.443Z,95416
2018-07-24T11:46:54.893Z,95411.1
2018-07-24T11:47:57.361Z,95411.8
2018-07-24T11:48:59.827Z,95412.2
2018-07-24T11:50:02.304Z,95411.1
2018-07-24T11:51:04.788Z,95413.6
2018-07-24T11:52:07.246Z,95406.8
2018-07-24T11:53:09.433Z,95405.8
2018-07-24T11:54:11.898Z,95405.6
2018-07-24T11:55:14.049Z,95398.4
2018-07-24T11:56:15.941Z,95403.2
2018-07-24T11:57:18.121Z,95404
2018-07-24T11:58:20.304Z,95403.6
2018-07-24T11:59:22.797Z,95398.7
2018-07-24T12:00:24.729Z,95395.6
2018-07-24T12:01:26.898Z,95399.4
2018-07-24T12:02:29.083Z,95402.4
2018-07-24T12:03:31.776Z,95397.4
2018-07-24T12:04:34.021Z,95404
2018-07-24T12:05:36.508Z,95404.6
2018-07-24T12:06:38.963Z,95395.6
2018-07-24T12:07:41.209Z,95400.3
2018-07-24T12:08:43.698Z,95399
2018-07-24T12:09:45.878Z,95397
2018-07-24T12:10:48.339Z,95394
2018-07-24T12:11:50.542Z,95394.4
2018-07-24T12:12:52.993Z,95393.6
2018-07-24T12:13:55.455Z,95392.4
2018-07-24T12:14:58.277Z,95394
2018-07-24T12:16:01.046Z,95393.6
2018-07-24T12:17:02.959Z,95393.5
2018-07-24T12:18:04.588Z,95399.6
2018-07-24T12:19:06.773Z,95396.2
2018-07-24T12:20:08.962Z,95396.3
2018-07-24T12:21:11.414Z,95394.9
2018-07-24T12:22:13.594Z,95392.1
2018-07-24T12:23:16.063Z,95386.8
2018-07-24T12:24:18.548Z,95387.3
2018-07-24T12:25:20.719Z,95390.9
2018-07-24T12:26:23.190Z,95386
2018-07-24T12:27:25.647Z,95392.9
2018-07-24T12:28:28.114Z,95386.5
2018-07-24T12:29:30.561Z,95389.9
2018-07-24T12:30:33.023Z,95395
2018-07-24T12:31:35.521Z,95390.5
2018-07-24T12:32:37.678Z,95390.5
2018-07-24T12:33:39.865Z,95386.5
2018-07-24T12:34:42.336Z,95392.1
2018-07-24T12:35:45.031Z,95393.1
2018-07-24T12:36:47.210Z,95401.7
2018-07-24T12:37:49.675Z,95394.1
2018-07-24T12:38:52.127Z,95392.8